YMIAYMAY

Guest
Details From YMIA - Mildura
To YMAY - Albury Airport
Flight Number -
Tags generated
Created
Modified
Stats Distance 282 nm / 523 km
Max Altitude 25,300 ft / 7,711 m
Waypoints 5
Social Downloads 1
Likes 0
Share VATSIM

Download

Looking for another format? Having issues loading an existing format? Contact us
Advertisement - Login to hide

Notes

Basic altitude profile: - Ascent Rate: 2500ft/min - Ascent Speed: 250kts - Cruise Altitude: 35000ft - Cruise Speed: 420kts - Descent Rate: 1500ft/min - Descent Speed: 250kts Options: - Use NATs: yes - Use PACOTS: yes - Use low airways: yes - Use high airways: yes

Route

YMIA MAXEM Q60 TOBOB POLSO YMAY

ID Type Via Altitude Latitude Longitude Leg Dist Tot Dist Heading (true) Name
O YMIA APT - 0 ft / 0 m -34.22949˚ 142.08634˚ - 0 nm - Mildura
MAXEM FIX - 11,000 ft / 3,353 m -34.63500˚ 142.55583˚ 33 nm 33 nm 136° / 136° -
TOBOB FIX Q60 (AWY-LO) 25,300 ft / 7,711 m -34.93417˚ 145.08028˚ 125 nm 159 nm 99° / 97° -
POLSO FIX - 13,600 ft / 4,145 m -35.77944˚ 145.69750˚ 59 nm 218 nm 149° / 149° -
O YMAY APT - 0 ft / 0 m -36.06676˚ 146.95934˚ 63 nm 282 nm 106° / 105° Albury Airport

Altitude Profile

Advertisement - Login to hide

Weather


0- 5 10 15 20 25 30 35+ Temperature / ° C

Clouds and Precipitation
Forecast for 2017-12-12 00:00 UTC. Updated 2 hours ago

Ground ~20,000 ft ~40,000 ft Winds

YMIA

Details ICAO YMIA (MQL)
Name Mildura
Region Australia
Timezone Australia/Melbourne (UTC+11.0)
Stats Elevation 166 ft / 51 m (AMSL)
Location -34.229489° 142.086345°
Runways 2
Magnetic Variation 9.251° E

METAR

YMIA 112100Z AUTO 11005KT 9999 // NCD 20/10 Q1016

Decode

TAF

Not found

Departure Runways

ID Width Length Bearing (true) Bearing (mag) Surface Threshold Offset Overrun Length
09 148 ft / 45 m 5,990 ft / 1,826 m 101.71° 92.46° Asphalt 0 ft / 0 m 0 ft / 0 m
18 98 ft / 30 m 3,739 ft / 1,140 m 185.00° 175.75° Asphalt 0 ft / 0 m 0 ft / 0 m
27 148 ft / 45 m 5,990 ft / 1,826 m 281.69° 272.44° Asphalt 0 ft / 0 m 0 ft / 0 m
36 98 ft / 30 m 3,739 ft / 1,140 m 5.00° 355.75° Asphalt 0 ft / 0 m 0 ft / 0 m

YMAY

Details ICAO YMAY (ABX)
Name Albury Airport
Region Australia
Timezone Australia/Sydney (UTC+11.0)
Stats Elevation 539 ft / 164 m (AMSL)
Location -36.066760° 146.959338°
Runways 1
Magnetic Variation 11.818° E

METAR

YMAY 112100Z AUTO 14003KT 9999 // NCD 19/12 Q1017

Decode

TAF

Not found

Destination Runways

ID Width Length Bearing (true) Bearing (mag) Surface Threshold Offset Overrun Length
07 98 ft / 30 m 6,222 ft / 1,897 m 81.11° 69.29° Asphalt 0 ft / 0 m 0 ft / 0 m
25 98 ft / 30 m 6,222 ft / 1,897 m 261.09° 249.27° Asphalt 0 ft / 0 m 0 ft / 0 m

Popular Alternatives